createdAt,value
2018-05-07T00:01:05.466Z,12.7
2018-05-07T00:02:12.909Z,12.7
2018-05-07T00:03:20.118Z,12.6
2018-05-07T00:04:27.372Z,12.6
2018-05-07T00:05:34.581Z,12.6
2018-05-07T00:06:41.788Z,12.6
2018-05-07T00:07:48.996Z,12.6
2018-05-07T00:08:56.200Z,12.6
2018-05-07T00:10:03.405Z,12.6
2018-05-07T00:11:10.608Z,12.6
2018-05-07T00:12:17.542Z,12.6
2018-05-07T00:13:24.763Z,12.6
2018-05-07T00:14:32.002Z,12.6
2018-05-07T00:15:39.224Z,12.6
2018-05-07T00:16:46.156Z,12.6
2018-05-07T00:17:53.374Z,12.6
2018-05-07T00:19:00.581Z,12.6
2018-05-07T00:20:07.788Z,12.6
2018-05-07T00:21:14.995Z,12.6
2018-05-07T00:22:22.201Z,12.6
2018-05-07T00:23:29.411Z,12.6
2018-05-07T00:24:36.624Z,12.5
2018-05-07T00:25:43.831Z,12.5
2018-05-07T00:26:50.764Z,12.6
2018-05-07T00:27:57.972Z,12.5
2018-05-07T00:29:05.177Z,12.5
2018-05-07T00:30:12.395Z,12.6
2018-05-07T00:31:19.596Z,12.6
2018-05-07T00:32:26.808Z,12.5
2018-05-07T00:33:34.018Z,12.5
2018-05-07T00:34:41.220Z,12.5
2018-05-07T00:35:48.431Z,12.5
2018-05-07T00:36:55.686Z,12.5
2018-05-07T00:38:02.838Z,12.5
2018-05-07T00:39:10.045Z,12.5
2018-05-07T00:40:17.253Z,12.5
2018-05-07T00:41:24.184Z,12.5
2018-05-07T00:42:31.398Z,12.5
2018-05-07T00:43:38.610Z,12.5
2018-05-07T00:44:45.815Z,12.4
2018-05-07T00:45:53.026Z,12.5
2018-05-07T00:47:00.006Z,12.5
2018-05-07T00:48:07.216Z,12.5
2018-05-07T00:49:13.874Z,12.5
2018-05-07T00:50:21.081Z,12.5
2018-05-07T00:51:28.307Z,12.5
2018-05-07T00:52:35.511Z,12.5
2018-05-07T00:53:42.716Z,12.5
2018-05-07T00:54:49.926Z,12.5
2018-05-07T00:55:57.132Z,12.5
2018-05-07T00:57:04.351Z,12.5
2018-05-07T00:58:11.550Z,12.5
2018-05-07T00:59:18.756Z,12.5
2018-05-07T01:00:25.962Z,12.5
2018-05-07T01:01:32.889Z,12.5
2018-05-07T01:02:40.098Z,12.5
2018-05-07T01:03:47.314Z,12.4
2018-05-07T01:04:54.524Z,12.5
2018-05-07T01:06:01.723Z,12.5
2018-05-07T01:07:08.649Z,12.4
2018-05-07T01:08:15.859Z,12.4
2018-05-07T01:09:22.805Z,12.4
2018-05-07T01:10:29.739Z,12.3
2018-05-07T01:11:36.950Z,12.3
2018-05-07T01:12:44.208Z,12.3
2018-05-07T01:13:51.578Z,12.3
2018-05-07T01:14:58.780Z,12.3
2018-05-07T01:16:05.986Z,12.3
2018-05-07T01:17:13.192Z,12.3
2018-05-07T01:18:20.400Z,12.2
2018-05-07T01:19:27.609Z,12.2
2018-05-07T01:20:34.811Z,12.3
2018-05-07T01:21:42.016Z,12.3
2018-05-07T01:22:48.683Z,12.3
2018-05-07T01:23:55.892Z,12.2
2018-05-07T01:25:02.822Z,12.2
2018-05-07T01:26:10.028Z,12.3
2018-05-07T01:27:16.963Z,12.3
2018-05-07T01:28:24.171Z,12.2
2018-05-07T01:29:31.446Z,12.2
2018-05-07T01:30:38.655Z,12.2
2018-05-07T01:31:45.591Z,12.2
2018-05-07T01:32:52.796Z,12.1
2018-05-07T01:34:00.003Z,12.1
2018-05-07T01:35:07.206Z,12
2018-05-07T01:36:14.414Z,12
2018-05-07T01:37:21.650Z,12
2018-05-07T01:38:28.858Z,12
2018-05-07T01:39:36.065Z,12.1
2018-05-07T01:40:43.272Z,12.1
2018-05-07T01:41:50.475Z,12.2
2018-05-07T01:42:57.679Z,12.2
2018-05-07T01:44:04.612Z,12.1
2018-05-07T01:45:12.035Z,12.1
2018-05-07T01:46:18.984Z,12.1
2018-05-07T01:47:26.188Z,12
2018-05-07T01:48:33.391Z,12
2018-05-07T01:49:40.598Z,12
2018-05-07T01:50:47.526Z,12
2018-05-07T01:51:54.731Z,11.9
2018-05-07T01:53:01.975Z,11.9
2018-05-07T01:54:08.908Z,12
2018-05-07T01:55:15.841Z,12
2018-05-07T01:56:23.048Z,12
2018-05-07T01:57:30.252Z,11.9
2018-05-07T01:58:37.680Z,11.9
2018-05-07T01:59:44.883Z,11.9
2018-05-07T02:00:52.087Z,11.9
2018-05-07T02:01:59.293Z,11.9
2018-05-07T02:03:06.500Z,11.9
2018-05-07T02:04:13.703Z,11.9
2018-05-07T02:05:20.909Z,11.9
2018-05-07T02:06:28.111Z,11.8
2018-05-07T02:07:35.318Z,11.9
2018-05-07T02:08:42.518Z,11.9
2018-05-07T02:09:49.723Z,11.8
2018-05-07T02:10:56.930Z,11.8
2018-05-07T02:12:04.134Z,11.8
2018-05-07T02:13:10.807Z,11.8
2018-05-07T02:14:18.011Z,11.8
2018-05-07T02:15:24.937Z,11.8
2018-05-07T02:16:32.141Z,11.8
2018-05-07T02:17:39.075Z,11.8
2018-05-07T02:18:46.276Z,11.9
2018-05-07T02:19:53.480Z,11.9
2018-05-07T02:21:00.690Z,11.9
2018-05-07T02:22:07.626Z,11.8
2018-05-07T02:23:14.843Z,11.8
2018-05-07T02:24:22.053Z,11.8
2018-05-07T02:25:29.259Z,11.8
2018-05-07T02:26:36.461Z,11.9
2018-05-07T02:27:43.392Z,11.8
2018-05-07T02:28:50.325Z,11.8
2018-05-07T02:29:57.476Z,11.8
2018-05-07T02:31:04.691Z,11.7
2018-05-07T02:32:11.897Z,11.7
2018-05-07T02:33:19.098Z,11.7
2018-05-07T02:34:26.303Z,11.7
2018-05-07T02:35:33.512Z,11.7
2018-05-07T02:36:40.718Z,11.7
2018-05-07T02:37:47.649Z,11.7
2018-05-07T02:38:54.952Z,11.7
2018-05-07T02:40:02.244Z,11.7
2018-05-07T02:41:09.456Z,11.8
2018-05-07T02:42:16.664Z,11.8
2018-05-07T02:43:23.870Z,11.8
2018-05-07T02:44:31.084Z,11.8
2018-05-07T02:45:38.281Z,11.8
2018-05-07T02:46:45.218Z,11.7
2018-05-07T02:47:52.424Z,11.7
2018-05-07T02:48:59.632Z,11.7
2018-05-07T02:50:06.837Z,11.7
2018-05-07T02:51:14.044Z,11.7
2018-05-07T02:52:21.248Z,11.6
2018-05-07T02:53:28.455Z,11.6
2018-05-07T02:54:35.387Z,11.6
2018-05-07T02:55:42.597Z,11.5
2018-05-07T02:56:49.532Z,11.5
2018-05-07T02:57:56.737Z,11.4
2018-05-07T02:59:03.952Z,11.4
2018-05-07T03:00:11.159Z,11.3
2018-05-07T03:01:18.368Z,11.3
2018-05-07T03:02:25.570Z,11.3
2018-05-07T03:03:32.500Z,11.3
2018-05-07T03:04:39.707Z,11.3
2018-05-07T03:05:46.911Z,11.3
2018-05-07T03:06:54.114Z,11.3
2018-05-07T03:08:01.356Z,11.2
2018-05-07T03:09:08.569Z,11.2
2018-05-07T03:10:15.777Z,11.1
2018-05-07T03:11:22.982Z,11.1
2018-05-07T03:12:29.916Z,11.1
2018-05-07T03:13:37.130Z,11.1
2018-05-07T03:14:44.337Z,11.1
2018-05-07T03:15:51.539Z,11
2018-05-07T03:16:58.742Z,11
2018-05-07T03:18:05.945Z,11
2018-05-07T03:19:12.901Z,11
2018-05-07T03:20:19.829Z,11
2018-05-07T03:21:26.762Z,11
2018-05-07T03:22:33.954Z,10.9
2018-05-07T03:23:41.161Z,10.9
2018-05-07T03:24:48.567Z,10.8
2018-05-07T03:25:55.936Z,10.8
2018-05-07T03:27:02.864Z,10.7
2018-05-07T03:28:10.070Z,10.7
2018-05-07T03:29:17.272Z,10.7
2018-05-07T03:30:24.242Z,10.8
2018-05-07T03:31:31.435Z,10.8
2018-05-07T03:32:38.366Z,10.7
2018-05-07T03:33:45.575Z,10.7
2018-05-07T03:34:52.784Z,10.7
2018-05-07T03:35:59.994Z,10.7
2018-05-07T03:37:07.192Z,10.7
2018-05-07T03:38:14.400Z,10.7
2018-05-07T03:39:21.605Z,10.7
2018-05-07T03:40:28.936Z,10.6
2018-05-07T03:41:36.159Z,10.6
2018-05-07T03:42:43.369Z,10.6
2018-05-07T03:43:50.576Z,10.7
2018-05-07T03:44:57.503Z,10.7
2018-05-07T03:46:04.707Z,10.8
2018-05-07T03:47:11.914Z,10.8
2018-05-07T03:48:19.119Z,10.8
2018-05-07T03:49:26.324Z,10.9
2018-05-07T03:50:33.534Z,10.8
2018-05-07T03:51:40.737Z,10.8
2018-05-07T03:52:47.943Z,10.9
2018-05-07T03:53:55.148Z,10.8
2018-05-07T03:55:01.798Z,10.9
2018-05-07T03:56:08.735Z,10.9
2018-05-07T03:57:15.940Z,10.9
2018-05-07T03:58:23.146Z,10.9
2018-05-07T03:59:30.350Z,10.9
2018-05-07T04:00:37.281Z,10.9
2018-05-07T04:01:44.485Z,10.9
2018-05-07T04:02:51.691Z,10.9
2018-05-07T04:03:58.891Z,10.8
2018-05-07T04:05:06.096Z,10.8
2018-05-07T04:06:13.297Z,10.7
2018-05-07T04:07:20.231Z,10.7
2018-05-07T04:08:27.472Z,10.7
2018-05-07T04:09:34.675Z,10.7
2018-05-07T04:10:41.605Z,10.7
2018-05-07T04:11:48.813Z,10.7
2018-05-07T04:12:56.023Z,10.7
2018-05-07T04:14:03.228Z,10.7
2018-05-07T04:15:10.151Z,10.7
2018-05-07T04:16:17.358Z,10.7
2018-05-07T04:17:24.285Z,10.7
2018-05-07T04:18:31.485Z,10.7
2018-05-07T04:19:38.687Z,10.7
2018-05-07T04:20:45.895Z,10.7
2018-05-07T04:21:53.101Z,10.7
2018-05-07T04:23:00.035Z,10.6
2018-05-07T04:24:07.241Z,10.6
2018-05-07T04:25:14.175Z,10.6
2018-05-07T04:26:21.380Z,10.6
2018-05-07T04:27:28.589Z,10.6
2018-05-07T04:28:35.791Z,10.6
2018-05-07T04:29:42.921Z,10.6
2018-05-07T04:30:50.127Z,10.6
2018-05-07T04:31:57.329Z,10.6
2018-05-07T04:33:03.992Z,10.6
2018-05-07T04:34:10.638Z,10.6
2018-05-07T04:35:17.853Z,10.5
2018-05-07T04:36:24.792Z,10.5
2018-05-07T04:37:31.998Z,10.5
2018-05-07T04:38:39.196Z,10.5
2018-05-07T04:39:46.405Z,10.5
2018-05-07T04:40:53.611Z,10.5
2018-05-07T04:42:00.815Z,10.6
2018-05-07T04:43:08.158Z,10.6
2018-05-07T04:44:15.429Z,10.6
2018-05-07T04:45:22.634Z,10.6
2018-05-07T04:46:29.837Z,10.6
2018-05-07T04:47:36.779Z,10.6
2018-05-07T04:48:44.082Z,10.6
2018-05-07T04:49:51.281Z,10.6
2018-05-07T04:50:58.485Z,10.6
2018-05-07T04:52:05.444Z,10.7
2018-05-07T04:53:12.649Z,10.7
2018-05-07T04:54:19.576Z,10.8
2018-05-07T04:55:26.778Z,10.8
2018-05-07T04:56:33.752Z,10.8
2018-05-07T04:57:40.768Z,10.9
2018-05-07T04:58:47.975Z,10.9
2018-05-07T04:59:55.226Z,10.9
2018-05-07T05:01:02.435Z,11
2018-05-07T05:02:09.650Z,11
2018-05-07T05:03:16.857Z,11
2018-05-07T05:04:24.061Z,11
2018-05-07T05:05:31.292Z,11.1
2018-05-07T05:06:38.503Z,11.2
2018-05-07T05:07:45.705Z,11.2
2018-05-07T05:08:52.913Z,11.2
2018-05-07T05:09:59.877Z,11.2
2018-05-07T05:11:07.082Z,11.2
2018-05-07T05:12:14.286Z,11.3
2018-05-07T05:13:21.493Z,11.4
2018-05-07T05:14:28.697Z,11.4
2018-05-07T05:15:35.901Z,11.5
2018-05-07T05:16:42.838Z,11.6
2018-05-07T05:17:50.056Z,11.7
2018-05-07T05:18:57.268Z,11.8
2018-05-07T05:20:04.563Z,11.8
2018-05-07T05:21:11.861Z,11.8
2018-05-07T05:22:19.438Z,11.8
2018-05-07T05:23:26.374Z,11.8
2018-05-07T05:24:33.621Z,11.8
2018-05-07T05:25:40.831Z,11.8
2018-05-07T05:26:48.040Z,11.8
2018-05-07T05:27:54.983Z,11.9
2018-05-07T05:29:02.176Z,11.8
2018-05-07T05:30:09.384Z,11.9
2018-05-07T05:31:16.588Z,12
2018-05-07T05:32:23.798Z,12
2018-05-07T05:33:31.021Z,12
2018-05-07T05:34:38.228Z,12.1
2018-05-07T05:35:45.430Z,12.1
2018-05-07T05:36:52.636Z,12.1
2018-05-07T05:37:59.842Z,12.2
2018-05-07T05:39:07.047Z,12.2
2018-05-07T05:40:13.984Z,12.3
2018-05-07T05:41:21.186Z,12.4
2018-05-07T05:42:28.391Z,12.4
2018-05-07T05:43:35.773Z,12.5
2018-05-07T05:44:43.270Z,12.5
2018-05-07T05:45:50.475Z,12.6
2018-05-07T05:46:57.680Z,12.6
2018-05-07T05:48:04.886Z,12.7
2018-05-07T05:49:12.093Z,12.8
2018-05-07T05:50:19.348Z,12.8
2018-05-07T05:51:26.851Z,13
2018-05-07T05:52:34.061Z,13
2018-05-07T05:53:41.269Z,13.1
2018-05-07T05:54:48.470Z,13.2
2018-05-07T05:55:55.676Z,13.3
2018-05-07T05:57:02.888Z,13.4
2018-05-07T05:58:10.089Z,13.5
2018-05-07T05:59:17.299Z,13.6
2018-05-07T06:00:24.502Z,13.8
2018-05-07T06:01:31.155Z,13.9
2018-05-07T06:02:38.365Z,14.1
2018-05-07T06:03:45.403Z,14.2
2018-05-07T06:04:52.771Z,14.4
2018-05-07T06:05:59.980Z,14.6
2018-05-07T06:07:06.913Z,14.7
2018-05-07T06:08:14.117Z,14.7
2018-05-07T06:09:21.341Z,14.8
2018-05-07T06:10:28.533Z,14.9
2018-05-07T06:11:35.734Z,15
2018-05-07T06:12:42.945Z,15.1
2018-05-07T06:13:49.881Z,15.3
2018-05-07T06:14:57.665Z,15.5
2018-05-07T06:16:05.449Z,15.7
2018-05-07T06:17:12.443Z,15.8
2018-05-07T06:18:19.378Z,16
2018-05-07T06:19:26.584Z,16.2
2018-05-07T06:20:33.517Z,16.4
2018-05-07T06:21:40.724Z,16.5
2018-05-07T06:22:47.927Z,16.7
2018-05-07T06:23:55.131Z,16.8
2018-05-07T06:25:02.360Z,17
2018-05-07T06:26:09.360Z,17.1
2018-05-07T06:27:16.506Z,17.3
2018-05-07T06:28:23.845Z,17.2
2018-05-07T06:29:30.842Z,17.4
2018-05-07T06:30:37.560Z,17.5
2018-05-07T06:31:44.776Z,17.5
2018-05-07T06:32:51.984Z,17.6
2018-05-07T06:33:58.911Z,17.7
2018-05-07T06:35:06.140Z,17.7
2018-05-07T06:36:13.360Z,17.9
2018-05-07T06:37:20.633Z,18.1
2018-05-07T06:38:27.855Z,18.2
2018-05-07T06:39:35.074Z,18.3
2018-05-07T06:40:42.286Z,18.6
2018-05-07T06:41:49.274Z,18.6
2018-05-07T06:42:56.475Z,18.6
2018-05-07T06:44:03.680Z,18.6
2018-05-07T06:45:10.629Z,18.6
2018-05-07T06:46:17.929Z,18.7
2018-05-07T06:47:25.139Z,18.7
2018-05-07T06:48:32.355Z,18.6
2018-05-07T06:49:39.562Z,18.6
2018-05-07T06:50:46.500Z,18.5
2018-05-07T06:51:53.706Z,18.7
2018-05-07T06:53:00.913Z,18.9
2018-05-07T06:54:08.119Z,18.8
2018-05-07T06:55:15.326Z,19
2018-05-07T06:56:22.268Z,18.9
2018-05-07T06:57:29.213Z,18.8
2018-05-07T06:58:36.428Z,19
2018-05-07T06:59:43.358Z,19.2
2018-05-07T07:00:50.567Z,19.3
2018-05-07T07:01:57.780Z,19.7
2018-05-07T07:03:04.987Z,19.8
2018-05-07T07:04:12.195Z,19.7
2018-05-07T07:05:19.409Z,20
2018-05-07T07:06:26.348Z,20.2
2018-05-07T07:07:33.606Z,20.3
2018-05-07T07:08:41.186Z,19.8
2018-05-07T07:09:48.707Z,19.7
2018-05-07T07:10:55.917Z,19.3
2018-05-07T07:12:02.874Z,19.4
2018-05-07T07:13:10.080Z,19.6
2018-05-07T07:14:17.289Z,19.8
2018-05-07T07:15:24.508Z,20
2018-05-07T07:16:31.825Z,19.6
2018-05-07T07:17:39.131Z,19.3
2018-05-07T07:18:46.345Z,19.3
2018-05-07T07:19:53.301Z,19.6
2018-05-07T07:21:00.516Z,20
2018-05-07T07:22:07.523Z,20.3
2018-05-07T07:23:14.735Z,20.3
2018-05-07T07:24:21.943Z,20.2
2018-05-07T07:25:28.884Z,20.1
2018-05-07T07:26:36.097Z,20.3
2018-05-07T07:27:43.310Z,20.3
2018-05-07T07:28:50.528Z,20.2
2018-05-07T07:29:57.190Z,20.4
2018-05-07T07:31:04.402Z,20.5
2018-05-07T07:32:11.674Z,20.6
2018-05-07T07:33:18.888Z,20.6
2018-05-07T07:34:26.102Z,20.7
2018-05-07T07:35:33.321Z,20.9
2018-05-07T07:36:40.536Z,20.6
2018-05-07T07:37:47.744Z,20.7
2018-05-07T07:38:54.964Z,20.6
2018-05-07T07:40:01.895Z,20.8
2018-05-07T07:41:09.105Z,20.9
2018-05-07T07:42:16.315Z,21
2018-05-07T07:43:23.523Z,20.9
2018-05-07T07:44:30.735Z,20.9
2018-05-07T07:45:37.975Z,20.9
2018-05-07T07:46:45.185Z,20.4
2018-05-07T07:47:52.397Z,20.5
2018-05-07T07:48:59.608Z,20.6
2018-05-07T07:50:06.827Z,20.4
2018-05-07T07:51:14.045Z,20.3
2018-05-07T07:52:21.082Z,20.2
2018-05-07T07:53:28.507Z,20.6
2018-05-07T07:54:35.453Z,21
2018-05-07T07:55:42.668Z,21.2
2018-05-07T07:56:49.883Z,21
2018-05-07T07:57:56.824Z,20.7
2018-05-07T07:59:04.036Z,21.1
2018-05-07T08:00:11.255Z,21.6
2018-05-07T08:01:18.462Z,21.7
2018-05-07T08:02:25.679Z,21.6
2018-05-07T08:03:32.357Z,21.8
2018-05-07T08:04:39.573Z,22
2018-05-07T08:05:46.785Z,22
2018-05-07T08:06:54.005Z,22.1
2018-05-07T08:08:01.213Z,22
2018-05-07T08:09:08.133Z,22.1
2018-05-07T08:10:15.087Z,22.2
2018-05-07T08:11:22.297Z,22.3
2018-05-07T08:12:29.509Z,22.4
2018-05-07T08:13:36.720Z,22.5
2018-05-07T08:14:43.926Z,22.5
2018-05-07T08:15:51.140Z,22
2018-05-07T08:16:58.357Z,22
2018-05-07T08:18:05.564Z,22.3
2018-05-07T08:19:12.773Z,22.4
2018-05-07T08:20:19.992Z,22.2
2018-05-07T08:21:27.203Z,22.2
2018-05-07T08:22:34.414Z,22.1
2018-05-07T08:23:41.634Z,22
2018-05-07T08:24:48.947Z,21.5
2018-05-07T08:25:56.459Z,21.2
2018-05-07T08:27:03.730Z,21.3
2018-05-07T08:28:10.666Z,21.4
2018-05-07T08:29:17.880Z,21.3
2018-05-07T08:30:25.209Z,21.6
2018-05-07T08:31:32.602Z,22.1
2018-05-07T08:32:39.815Z,22.4
2018-05-07T08:33:46.751Z,22.6
2018-05-07T08:34:53.964Z,22.7
2018-05-07T08:36:01.179Z,22.8
2018-05-07T08:37:08.392Z,23
2018-05-07T08:38:15.340Z,23.2
2018-05-07T08:39:22.547Z,23.4
2018-05-07T08:40:29.757Z,23.3
2018-05-07T08:41:36.969Z,23.4
2018-05-07T08:42:44.204Z,23.2
2018-05-07T08:43:51.160Z,23.4
2018-05-07T08:44:58.579Z,23.3
2018-05-07T08:46:05.240Z,23.5
2018-05-07T08:47:12.453Z,22.9
2018-05-07T08:48:19.660Z,23
2018-05-07T08:49:26.877Z,23.3
2018-05-07T08:50:34.092Z,23.4
2018-05-07T08:51:41.316Z,23.1
2018-05-07T08:52:48.727Z,22.9
2018-05-07T08:53:56.208Z,23
2018-05-07T08:55:03.423Z,23
2018-05-07T08:56:10.641Z,23.4
2018-05-07T08:57:17.854Z,23.8
2018-05-07T08:58:25.080Z,24.1
2018-05-07T08:59:32.028Z,23.9
2018-05-07T09:00:39.236Z,23.9
2018-05-07T09:01:46.454Z,24
2018-05-07T09:02:53.865Z,23.6
2018-05-07T09:04:01.091Z,23.4
2018-05-07T09:05:08.052Z,23.5
2018-05-07T09:06:15.272Z,23.6
2018-05-07T09:07:22.209Z,23.3
2018-05-07T09:08:29.423Z,23.5
2018-05-07T09:09:36.697Z,23.7
2018-05-07T09:10:43.910Z,24
2018-05-07T09:11:51.120Z,23.4
2018-05-07T09:12:58.069Z,23.5
2018-05-07T09:14:05.293Z,23.5
2018-05-07T09:15:12.512Z,22.9
2018-05-07T09:16:19.727Z,23
2018-05-07T09:17:26.949Z,22.9
2018-05-07T09:18:34.170Z,22.9
2018-05-07T09:19:41.451Z,23
2018-05-07T09:20:48.665Z,23
2018-05-07T09:21:55.877Z,23.3
2018-05-07T09:23:03.093Z,23.3
2018-05-07T09:24:10.308Z,23.5
2018-05-07T09:25:17.530Z,23.7
2018-05-07T09:26:24.740Z,24.1
2018-05-07T09:27:31.956Z,24.5
2018-05-07T09:28:39.180Z,24.4
2018-05-07T09:29:46.397Z,24.5
2018-05-07T09:30:53.609Z,24.3
2018-05-07T09:32:00.832Z,23.7
2018-05-07T09:33:08.044Z,23.9
2018-05-07T09:34:15.262Z,24.3
2018-05-07T09:35:22.476Z,24.6
2018-05-07T09:36:29.691Z,24.8
2018-05-07T09:37:36.940Z,25
2018-05-07T09:38:43.886Z,24.9
2018-05-07T09:39:51.104Z,24.5
2018-05-07T09:40:58.320Z,24.2
2018-05-07T09:42:05.543Z,24.3
2018-05-07T09:43:12.841Z,23.7
2018-05-07T09:44:20.111Z,24
2018-05-07T09:45:27.331Z,24.3
2018-05-07T09:46:34.549Z,24.5
2018-05-07T09:47:41.766Z,24.8
2018-05-07T09:48:48.727Z,24.5
2018-05-07T09:49:56.105Z,24.4
2018-05-07T09:51:03.327Z,24.6
2018-05-07T09:52:10.544Z,24.2
2018-05-07T09:53:17.760Z,23.8
2018-05-07T09:54:24.982Z,24.1
2018-05-07T09:55:32.216Z,24.5
2018-05-07T09:56:39.136Z,24.6
2018-05-07T09:57:46.379Z,24.9
2018-05-07T09:58:53.600Z,25.1
2018-05-07T10:00:00.814Z,25.1
2018-05-07T10:01:08.028Z,25.3
2018-05-07T10:02:15.237Z,25.3
2018-05-07T10:03:22.179Z,25.2
2018-05-07T10:04:29.461Z,25.2
2018-05-07T10:05:36.677Z,25.3
2018-05-07T10:06:43.894Z,25.2
2018-05-07T10:07:51.115Z,25.1
2018-05-07T10:08:58.055Z,24.9
2018-05-07T10:10:05.270Z,24.8
2018-05-07T10:11:12.486Z,24.8
2018-05-07T10:12:19.470Z,24.8
2018-05-07T10:13:26.679Z,24.8
2018-05-07T10:14:33.614Z,24.1
2018-05-07T10:15:40.567Z,24.4
2018-05-07T10:16:47.779Z,24.7
2018-05-07T10:17:54.719Z,25.1
2018-05-07T10:19:01.940Z,25.2
2018-05-07T10:20:09.155Z,25.1
2018-05-07T10:21:16.369Z,25
2018-05-07T10:22:23.588Z,25
2018-05-07T10:23:30.812Z,24.9
2018-05-07T10:24:38.151Z,25.1
2018-05-07T10:25:45.376Z,25.2
2018-05-07T10:26:52.592Z,25.3
2018-05-07T10:27:59.532Z,25.4
2018-05-07T10:29:06.745Z,25.4
2018-05-07T10:30:13.964Z,25.2
2018-05-07T10:31:21.195Z,25.3
2018-05-07T10:32:28.137Z,25.6
2018-05-07T10:33:35.352Z,25.8
2018-05-07T10:34:42.568Z,25.5
2018-05-07T10:35:49.787Z,25.4
2018-05-07T10:36:57.003Z,25.3
2018-05-07T10:38:04.424Z,25.2
2018-05-07T10:39:11.666Z,25.2
2018-05-07T10:40:18.885Z,25.4
2018-05-07T10:41:26.108Z,25.3
2018-05-07T10:42:33.323Z,25.3
2018-05-07T10:43:40.540Z,25.5
2018-05-07T10:44:47.761Z,25.6
2018-05-07T10:45:54.975Z,25.1
2018-05-07T10:47:02.190Z,25
2018-05-07T10:48:09.410Z,25.2
2018-05-07T10:49:16.802Z,25.8
2018-05-07T10:50:24.319Z,25.8
2018-05-07T10:51:31.545Z,25.6
2018-05-07T10:52:38.755Z,25.6
2018-05-07T10:53:45.978Z,25.4
2018-05-07T10:54:53.196Z,25.2
2018-05-07T10:56:00.411Z,25.4
2018-05-07T10:57:07.347Z,25.3
2018-05-07T10:58:14.569Z,25
2018-05-07T10:59:21.528Z,24.6
2018-05-07T11:00:28.749Z,24.1
2018-05-07T11:01:36.078Z,24.6
2018-05-07T11:02:43.419Z,24.7
2018-05-07T11:03:50.644Z,24.2
2018-05-07T11:04:57.858Z,24.5
2018-05-07T11:06:05.082Z,24.5
2018-05-07T11:07:12.324Z,24.9
2018-05-07T11:08:19.554Z,25.2
2018-05-07T11:09:26.512Z,25.5
2018-05-07T11:10:33.729Z,25.8
2018-05-07T11:11:40.948Z,26.1
2018-05-07T11:12:48.170Z,26.4
2018-05-07T11:13:55.431Z,26.3
2018-05-07T11:15:02.656Z,26.2
2018-05-07T11:16:09.871Z,26.1
2018-05-07T11:17:17.097Z,26.2
2018-05-07T11:18:24.037Z,26.5
2018-05-07T11:19:30.982Z,27.2
2018-05-07T11:20:38.194Z,27.6
2018-05-07T11:21:45.416Z,27.7
2018-05-07T11:22:52.635Z,27.5
2018-05-07T11:23:59.856Z,26.9
2018-05-07T11:25:07.078Z,26.7
2018-05-07T11:26:14.295Z,26.2
2018-05-07T11:27:21.234Z,26
2018-05-07T11:28:28.453Z,26.3
2018-05-07T11:29:35.673Z,26.5
2018-05-07T11:30:42.616Z,26.3
2018-05-07T11:31:49.833Z,26.2
2018-05-07T11:32:57.104Z,26.5
2018-05-07T11:34:04.332Z,26.7
2018-05-07T11:35:11.278Z,26.3
2018-05-07T11:36:18.491Z,26.6
2018-05-07T11:37:25.717Z,26.5
2018-05-07T11:38:32.393Z,26.4
2018-05-07T11:39:39.609Z,26.5
2018-05-07T11:40:46.824Z,26.5
2018-05-07T11:41:54.060Z,26.7
2018-05-07T11:43:01.281Z,26.7
2018-05-07T11:44:08.494Z,26.8
2018-05-07T11:45:15.432Z,26.1
2018-05-07T11:46:22.650Z,26.1
2018-05-07T11:47:30.149Z,26.4
2018-05-07T11:48:37.790Z,26.6
2018-05-07T11:49:45.010Z,26.6
2018-05-07T11:50:52.247Z,26.8
2018-05-07T11:51:59.471Z,26.6
2018-05-07T11:53:06.724Z,26.5
2018-05-07T11:54:13.963Z,26.7
2018-05-07T11:55:21.185Z,27
2018-05-07T11:56:28.410Z,27.1
2018-05-07T11:57:35.639Z,26.8
2018-05-07T11:58:42.859Z,27.2
2018-05-07T11:59:50.078Z,27.3
2018-05-07T12:00:57.055Z,27.2
2018-05-07T12:02:04.278Z,27.3
2018-05-07T12:03:11.551Z,27
2018-05-07T12:04:18.508Z,27.1
2018-05-07T12:05:25.728Z,27.6
2018-05-07T12:06:32.939Z,27.3
2018-05-07T12:07:40.162Z,27.1
2018-05-07T12:08:47.400Z,27.4
2018-05-07T12:09:54.643Z,27.4
2018-05-07T12:11:01.861Z,27.5
2018-05-07T12:12:09.083Z,27.4
2018-05-07T12:13:16.337Z,27.3
2018-05-07T12:14:23.551Z,27.2
2018-05-07T12:15:30.772Z,27.2
2018-05-07T12:16:37.994Z,27
2018-05-07T12:17:45.211Z,26.4
2018-05-07T12:18:52.433Z,26.6
2018-05-07T12:19:59.670Z,26.9
2018-05-07T12:21:06.876Z,27
2018-05-07T12:22:14.097Z,27.4
2018-05-07T12:23:21.408Z,27.6
2018-05-07T12:24:28.828Z,27.5
2018-05-07T12:25:36.066Z,27.7
2018-05-07T12:26:43.015Z,27.6
2018-05-07T12:27:50.230Z,27.4
2018-05-07T22:00:06.094Z,16.3
2018-05-07T22:01:13.299Z,16.3
2018-05-07T22:02:20.292Z,16.3
2018-05-07T22:03:27.499Z,16.3
2018-05-07T22:04:34.707Z,16.2
2018-05-07T22:05:41.918Z,16.2
2018-05-07T22:06:49.119Z,16.2
2018-05-07T22:07:56.076Z,16.2
2018-05-07T22:09:03.207Z,16.2
2018-05-07T22:10:10.418Z,16.2
2018-05-07T22:11:17.624Z,16.2
2018-05-07T22:12:25.067Z,16.2
2018-05-07T22:13:32.548Z,16.1
2018-05-07T22:14:39.755Z,16.1
2018-05-07T22:15:46.967Z,16
2018-05-07T22:16:54.174Z,16
2018-05-07T22:18:01.382Z,16
2018-05-07T22:19:08.591Z,16
2018-05-07T22:20:15.801Z,15.9
2018-05-07T22:21:23.014Z,15.8
2018-05-07T22:22:30.222Z,15.7
2018-05-07T22:23:37.158Z,15.6
2018-05-07T22:24:44.374Z,15.5
2018-05-07T22:25:51.327Z,15.5
2018-05-07T22:26:58.526Z,15.4
2018-05-07T22:28:05.461Z,15.4
2018-05-07T22:29:12.673Z,15.3
2018-05-07T22:30:19.337Z,15.3
2018-05-07T22:31:26.541Z,15.3
2018-05-07T22:32:33.475Z,15.2
2018-05-07T22:33:40.408Z,15.2
2018-05-07T22:34:47.334Z,15.1
2018-05-07T22:35:54.548Z,15.1
2018-05-07T22:37:01.481Z,15
2018-05-07T22:38:08.417Z,15
2018-05-07T22:39:15.622Z,14.9
2018-05-07T22:40:22.835Z,14.8
2018-05-07T22:41:30.057Z,14.8
2018-05-07T22:42:37.258Z,14.8
2018-05-07T22:43:44.469Z,14.9
2018-05-07T22:44:51.677Z,14.9
2018-05-07T22:45:58.906Z,14.9
2018-05-07T22:47:05.843Z,14.9
2018-05-07T22:48:13.050Z,14.9
2018-05-07T22:49:19.987Z,14.9
2018-05-07T22:50:27.193Z,14.9
2018-05-07T22:51:34.139Z,15
2018-05-07T22:52:41.383Z,15
2018-05-07T22:53:48.589Z,15
2018-05-07T22:54:55.528Z,15.1
2018-05-07T22:56:02.744Z,15
2018-05-07T22:57:09.999Z,15
2018-05-07T22:58:17.195Z,14.9
2018-05-07T22:59:24.399Z,14.9
2018-05-07T23:00:31.617Z,14.8
2018-05-07T23:01:38.547Z,14.8
2018-05-07T23:02:45.750Z,14.8
2018-05-07T23:03:52.959Z,14.8
2018-05-07T23:05:00.172Z,14.7
2018-05-07T23:06:07.386Z,14.7
2018-05-07T23:07:14.597Z,14.7
2018-05-07T23:08:21.816Z,14.7
2018-05-07T23:09:28.748Z,14.7
2018-05-07T23:10:35.956Z,14.7
2018-05-07T23:11:43.164Z,14.7
2018-05-07T23:12:50.374Z,14.7
2018-05-07T23:13:57.581Z,14.7
2018-05-07T23:15:04.788Z,14.6
2018-05-07T23:16:11.989Z,14.6
2018-05-07T23:17:19.211Z,14.5
2018-05-07T23:18:26.570Z,14.4
2018-05-07T23:19:33.775Z,14.4
2018-05-07T23:20:40.981Z,14.3
2018-05-07T23:21:48.188Z,14.3
2018-05-07T23:22:55.403Z,14.2
2018-05-07T23:24:02.605Z,14.2
2018-05-07T23:25:09.817Z,14.1
2018-05-07T23:26:17.040Z,14.1
2018-05-07T23:27:24.247Z,14
2018-05-07T23:28:31.466Z,14
2018-05-07T23:29:38.399Z,13.9
2018-05-07T23:30:45.676Z,13.9
2018-05-07T23:31:52.891Z,13.8
2018-05-07T23:33:00.091Z,13.8
2018-05-07T23:34:07.296Z,13.8
2018-05-07T23:35:14.506Z,13.8
2018-05-07T23:36:21.712Z,13.7
2018-05-07T23:37:28.639Z,13.7
2018-05-07T23:38:35.847Z,13.7
2018-05-07T23:39:42.782Z,13.7
2018-05-07T23:40:49.988Z,13.7
2018-05-07T23:41:57.195Z,13.7
2018-05-07T23:43:04.132Z,13.7
2018-05-07T23:44:11.338Z,13.7
2018-05-07T23:45:18.778Z,13.6
2018-05-07T23:46:25.712Z,13.6
2018-05-07T23:47:32.921Z,13.6
2018-05-07T23:48:39.849Z,13.6
2018-05-07T23:49:47.063Z,13.6
2018-05-07T23:50:54.274Z,13.5
2018-05-07T23:52:01.480Z,13.6
2018-05-07T23:53:08.418Z,13.6
2018-05-07T23:54:15.622Z,13.6
2018-05-07T23:55:22.830Z,13.6
2018-05-07T23:56:30.083Z,13.7
2018-05-07T23:57:37.293Z,13.7
2018-05-07T23:58:44.229Z,13.6
2018-05-07T23:59:51.436Z,13.6
